createdAt,value
2022-08-22T00:02:43.199Z,98247.16
2022-08-22T00:03:03.564Z,98252.38
2022-08-22T00:05:06.010Z,98231.72
2022-08-22T00:10:54.342Z,98231.28
2022-08-22T00:16:02.108Z,98226.22
2022-08-22T00:21:39.180Z,98234.81
2022-08-22T00:26:52.716Z,98231.72
2022-08-22T00:32:06.692Z,98241.88
2022-08-22T00:37:16.723Z,98234.44
2022-08-22T00:42:51.878Z,98235.59
2022-08-22T00:48:23.178Z,98245.00
2022-08-22T00:53:40.475Z,98251.28
2022-08-22T00:59:17.931Z,98243.13
2022-08-22T01:04:46.664Z,98241.59
2022-08-22T01:09:54.239Z,98243.16
2022-08-22T01:15:01.747Z,98247.47
2022-08-22T01:20:24.702Z,98242.38
2022-08-22T01:25:57.705Z,98244.38
2022-08-22T01:31:33.477Z,98249.84
2022-08-22T01:36:53.860Z,98249.03
2022-08-22T01:42:20.362Z,98249.81
2022-08-22T01:47:45.156Z,98242.00
2022-08-22T01:52:53.650Z,98247.06
2022-08-22T01:58:14.851Z,98244.34
2022-08-22T02:03:26.169Z,98247.09
2022-08-22T02:08:49.213Z,98252.16
2022-08-22T02:14:20.173Z,98254.50
2022-08-22T02:19:38.163Z,98253.31
2022-08-22T02:24:53.503Z,98254.50
2022-08-22T02:30:08.541Z,98247.88
2022-08-22T02:35:14.414Z,98259.22
2022-08-22T02:40:20.456Z,98260.00
2022-08-22T02:45:40.440Z,98253.72
2022-08-22T02:50:57.107Z,98248.59
2022-08-22T02:56:37.493Z,98252.91
2022-08-22T03:01:46.450Z,98264.63
2022-08-22T03:07:21.333Z,98264.59
2022-08-22T03:12:48.700Z,98267.69
2022-08-22T03:18:25.898Z,98256.78
2022-08-22T03:23:47.044Z,98258.41
2022-08-22T03:29:04.307Z,98250.59
2022-08-22T03:34:25.244Z,98246.28
2022-08-22T03:39:53.117Z,98245.13
2022-08-22T03:45:07.007Z,98255.31
2022-08-22T03:50:11.873Z,98250.97
2022-08-22T03:55:27.099Z,98253.69
2022-08-22T04:00:52.494Z,98259.94
2022-08-22T04:06:23.122Z,98249.06
2022-08-22T04:12:04.925Z,98252.19
2022-08-22T04:17:22.016Z,98263.13
2022-08-22T04:22:51.049Z,98252.97
2022-08-22T04:28:02.973Z,98256.09
2022-08-22T04:33:32.332Z,98263.16
2022-08-22T04:38:40.404Z,98263.13
2022-08-22T04:44:13.595Z,98260.78
2022-08-22T04:49:34.094Z,98269.41
2022-08-22T04:54:47.533Z,98265.09
2022-08-22T04:59:51.101Z,98262.34
2022-08-22T05:05:13.410Z,98268.63
2022-08-22T05:10:26.007Z,98278.78
2022-08-22T05:15:44.181Z,98278.78
2022-08-22T05:20:51.463Z,98279.16
2022-08-22T05:25:56.809Z,98286.19
2022-08-22T05:31:00.144Z,98287.34
2022-08-22T05:36:31.978Z,98297.50
2022-08-22T05:41:36.983Z,98300.63
2022-08-22T05:46:41.204Z,98307.66
2022-08-22T05:51:58.345Z,98313.91
2022-08-22T05:57:08.778Z,98315.03
2022-08-22T06:02:16.678Z,98320.09
2022-08-22T06:07:29.047Z,98309.91
2022-08-22T06:12:45.069Z,98316.16
2022-08-22T06:18:00.789Z,98307.50
2022-08-22T06:23:05.033Z,98312.94
2022-08-22T06:28:11.994Z,98316.03
2022-08-22T06:33:18.788Z,98316.72
2022-08-22T06:38:24.044Z,98321.34
2022-08-22T06:43:26.521Z,98314.97
2022-08-22T06:48:28.974Z,98322.72
2022-08-22T06:53:48.063Z,98314.75
2022-08-22T06:58:54.834Z,98323.69
2022-08-22T07:04:08.325Z,98323.94
2022-08-22T07:09:28.308Z,98327.75
2022-08-22T07:14:41.644Z,98328.03
2022-08-22T07:20:18.677Z,98333.81
2022-08-22T07:25:20.672Z,98333.72
2022-08-22T07:30:28.177Z,98333.69
2022-08-22T07:36:01.638Z,98332.69
2022-08-22T07:41:15.576Z,98338.41
2022-08-22T07:46:43.262Z,98337.78
2022-08-22T07:52:08.169Z,98334.44
2022-08-22T07:57:21.352Z,98335.66
2022-08-22T08:02:24.913Z,98329.81
2022-08-22T08:07:30.101Z,98333.44
2022-08-22T08:12:38.496Z,98336.69
2022-08-22T08:17:40.909Z,98332.84
2022-08-22T08:22:46.173Z,98336.41
2022-08-22T08:28:08.403Z,98335.13
2022-08-22T08:33:25.738Z,98327.81
2022-08-22T08:38:33.687Z,98333.09
2022-08-22T08:44:00.558Z,98333.44
2022-08-22T08:49:24.306Z,98330.69
2022-08-22T08:54:35.349Z,98347.19
2022-08-22T08:59:52.549Z,98329.75
2022-08-22T09:05:05.038Z,98324.06
2022-08-22T09:10:27.361Z,98326.09
2022-08-22T09:16:04.566Z,98334.03
2022-08-22T09:26:57.560Z,98333.53
2022-08-22T09:32:13.149Z,98328.84
2022-08-22T09:37:20.880Z,98327.38
2022-08-22T09:42:53.301Z,98334.81
2022-08-22T09:48:28.127Z,98338.16
2022-08-22T09:53:54.757Z,98338.09
2022-08-22T09:59:24.664Z,98335.31
2022-08-22T10:04:38.552Z,98346.19
2022-08-22T10:10:18.241Z,98337.63
2022-08-22T10:15:29.889Z,98341.66
2022-08-22T10:20:48.545Z,98337.59
2022-08-22T10:26:03.754Z,98345.19
2022-08-22T10:31:21.804Z,98337.88
2022-08-22T10:36:40.833Z,98350.84
2022-08-22T10:41:54.880Z,98344.13
2022-08-22T10:47:05.588Z,98352.25
2022-08-22T10:52:16.376Z,98344.69
2022-08-22T10:57:44.233Z,98340.38
2022-08-22T11:03:10.974Z,98344.25
2022-08-22T11:08:46.005Z,98351.25
2022-08-22T11:14:16.489Z,98352.91
2022-08-22T11:19:36.749Z,98354.56
2022-08-22T11:24:56.344Z,98360.09
2022-08-22T11:30:19.541Z,98353.59
2022-08-22T11:35:26.007Z,98352.81
2022-08-22T11:40:30.746Z,98366.78
2022-08-22T11:45:51.346Z,98359.47
2022-08-22T11:51:25.564Z,98361.91
2022-08-22T11:56:43.061Z,98347.44
2022-08-22T12:02:04.653Z,98356.00
2022-08-22T12:07:17.899Z,98349.78
2022-08-22T12:12:38.160Z,98350.34
2022-08-22T12:18:14.352Z,98352.88
2022-08-22T12:23:49.751Z,98344.69
2022-08-22T12:29:33.770Z,98347.66
2022-08-22T12:34:49.895Z,98339.34
2022-08-22T12:40:26.413Z,98340.16
2022-08-22T12:45:41.681Z,98333.94
2022-08-22T12:50:51.854Z,98327.41
2022-08-22T12:56:12.388Z,98324.31
2022-08-22T13:01:16.849Z,98317.75
2022-08-22T13:06:38.958Z,98324.88
2022-08-22T13:11:45.030Z,98313.63
2022-08-22T13:16:52.007Z,98318.47
2022-08-22T13:22:07.609Z,98316.94
2022-08-22T13:27:27.024Z,98322.50
2022-08-22T13:32:37.779Z,98321.81
2022-08-22T13:37:44.739Z,98325.13
2022-08-22T13:42:50.584Z,98318.94
2022-08-22T13:48:03.619Z,98317.47
2022-08-22T13:53:15.757Z,98314.69
2022-08-22T13:58:25.192Z,98319.13
2022-08-22T14:03:48.905Z,98316.00
2022-08-22T14:08:56.914Z,98312.91
2022-08-22T14:14:02.343Z,98304.84
2022-08-22T14:19:11.817Z,98307.16
2022-08-22T14:24:26.882Z,98302.50
2022-08-22T14:29:42.884Z,98302.50
2022-08-22T14:35:10.710Z,98299.53
2022-08-22T14:40:29.809Z,98299.63
2022-08-22T14:45:36.856Z,98290.41
2022-08-22T14:50:44.133Z,98303.56
2022-08-22T14:56:09.201Z,98301.59
2022-08-22T15:01:17.176Z,98300.56
2022-08-22T15:06:35.982Z,98310.31
2022-08-22T15:11:42.141Z,98308.00
2022-08-22T15:17:06.950Z,98310.19
2022-08-22T15:22:15.429Z,98296.94
2022-08-22T15:27:20.587Z,98301.75
2022-08-22T15:32:26.694Z,98295.38
2022-08-22T15:37:33.114Z,98295.38
2022-08-22T15:42:42.041Z,98300.91
2022-08-22T15:47:52.130Z,98298.69
2022-08-22T15:53:06.924Z,98292.47
2022-08-22T15:58:20.363Z,98291.09
2022-08-22T16:03:32.984Z,98291.63
2022-08-22T16:08:51.338Z,98294.56
2022-08-22T16:14:16.563Z,98290.78
2022-08-22T16:19:25.068Z,98287.84
2022-08-22T16:24:26.957Z,98294.47
2022-08-22T16:29:41.264Z,98306.03
2022-08-22T16:34:45.925Z,98304.25
2022-08-22T16:39:49.837Z,98312.25
2022-08-22T16:45:08.537Z,98308.38
2022-08-22T16:50:10.379Z,98308.13
2022-08-22T16:55:30.644Z,98310.13
2022-08-22T17:01:00.352Z,98320.91
2022-08-22T17:06:25.971Z,98321.75
2022-08-22T17:11:42.763Z,98327.84
2022-08-22T17:17:14.061Z,98337.44
2022-08-22T17:22:28.480Z,98336.25
2022-08-22T17:27:37.663Z,98338.28
2022-08-22T17:33:01.261Z,98338.28
2022-08-22T17:38:13.147Z,98338.47
2022-08-22T17:43:33.676Z,98338.53
2022-08-22T17:49:22.980Z,98341.91
2022-08-22T17:54:40.941Z,98344.47
2022-08-22T17:59:59.973Z,98345.31
2022-08-22T18:05:07.078Z,98364.38
2022-08-22T18:10:15.132Z,98355.66
2022-08-22T18:15:39.819Z,98352.88
2022-08-22T18:20:44.871Z,98357.28
2022-08-22T18:25:56.850Z,98357.22
2022-08-22T18:31:07.559Z,98365.50
2022-08-22T18:36:39.135Z,98365.81
2022-08-22T18:41:52.573Z,98358.06
2022-08-22T18:46:58.612Z,98354.94
2022-08-22T18:52:09.701Z,98360.47
2022-08-22T18:57:47.333Z,98365.28
2022-08-22T19:03:04.843Z,98365.94
2022-08-22T19:08:36.749Z,98364.28
2022-08-22T19:13:57.203Z,98367.56
2022-08-22T19:19:51.481Z,98368.84
2022-08-22T19:25:16.768Z,98369.66
2022-08-22T19:30:34.184Z,98364.28
2022-08-22T19:35:42.167Z,98362.50
2022-08-22T19:40:58.158Z,98363.00
2022-08-22T19:46:05.678Z,98367.78
2022-08-22T19:51:23.918Z,98372.53
2022-08-22T19:56:34.338Z,98372.59
2022-08-22T20:02:07.854Z,98376.53
2022-08-22T20:07:34.108Z,98383.78
2022-08-22T20:12:49.681Z,98378.03
2022-08-22T20:23:29.733Z,98364.06
2022-08-22T20:28:37.093Z,98368.56
2022-08-22T20:33:43.079Z,98367.94
2022-08-22T20:38:55.953Z,98364.47
2022-08-22T20:44:15.948Z,98364.09
2022-08-22T20:49:31.053Z,98354.69
2022-08-22T20:54:40.608Z,98355.47
2022-08-22T20:59:56.017Z,98353.16
2022-08-22T21:05:01.067Z,98355.56
2022-08-22T21:16:56.012Z,98351.84
2022-08-22T21:22:24.661Z,98354.34
2022-08-22T21:27:35.708Z,98351.78
2022-08-22T21:32:43.290Z,98354.22
2022-08-22T21:37:46.639Z,98352.31
2022-08-22T21:43:05.587Z,98349.22
2022-08-22T21:48:40.988Z,98346.94
2022-08-22T21:53:42.904Z,98352.53
2022-08-22T21:58:46.358Z,98351.75
2022-08-22T22:03:48.668Z,98346.28
2022-08-22T22:08:50.961Z,98358.53
2022-08-22T22:13:53.528Z,98349.56
2022-08-22T22:18:55.969Z,98352.38
2022-08-22T22:23:58.679Z,98345.72
2022-08-22T22:29:00.730Z,98353.56
2022-08-22T22:34:02.707Z,98350.06
2022-08-22T22:39:06.758Z,98340.31
2022-08-22T22:44:08.762Z,98346.25
2022-08-22T22:49:10.677Z,98347.44
2022-08-22T22:54:12.570Z,98334.84
2022-08-22T22:59:17.327Z,98336.38
2022-08-22T23:04:19.173Z,98339.53
2022-08-22T23:09:21.077Z,98336.03
2022-08-22T23:14:31.266Z,98335.91
2022-08-22T23:19:33.809Z,98333.19
2022-08-22T23:24:38.171Z,98320.03
2022-08-22T23:29:43.826Z,98326.50
2022-08-22T23:34:48.798Z,98319.88
2022-08-22T23:39:50.975Z,98323.44
2022-08-22T23:44:52.860Z,98328.13
2022-08-22T23:49:54.726Z,98323.41
2022-08-22T23:54:56.651Z,98319.34
2022-08-22T23:59:58.742Z,98321.59
